Warning: Javascript must be enabled to use all the features on this page!


Page Loading - Please Wait...

Click to hideNews Bulletins

Peak Streamflow for the Nation

USGS 11463000 RUSSIAN R NR CLOVERDALE CA

Mendocino County, California
Hydrologic Unit Code 18010110
Latitude  38°52'46", Longitude 123°03'09" NAD27
Drainage area 503  square miles
Gage datum 350 feet above NGVD29
Output formats
Table
Graph
Tab-separated file
peakfq (watstore) format
Reselect output format
Water
Year
Date Gage
Height
(feet)
Stream-
flow
(cfs)
1952 1951-12-28 20.40 21,500
1953 1952-12-07 21.20 23,200
1954 1954-01-17 25.55 33,300
1955 1954-12-06 12.84 6,740
1956 1955-12-22 30.90 53,000
1957 1957-02-24 20.00 20,600
1958 1958-02-24 26.18 38,1006
1959 1959-02-16 18.83 18,1006
1960 1960-02-08 21.66 24,9006
1961 1960-12-01 17.65 15,4006
1962 1962-02-13 19.51 19,4006
1963 1963-01-31 21.75 25,2006
1964 1964-01-20 18.23 16,6006
1965 1964-12-22 31.60 55,2006
1966 1966-01-05 24.37 32,6006
1967 1967-01-21 19.92 20,4006
1968 1968-01-14 15.86 11,8006
1969 1969-01-13 21.32 24,8006
1970 1970-01-23 25.466 36,0006
1971 1970-12-04 18.92 25,0006
1972 1972-01-23 10.29 6,1406
1973 1973-01-16 16.69 18,9006
1974 1974-01-16 26.50 51,9006
1975 1975-02-12 17.50 21,2006
1976 1976-02-29 8.58 4,3406
1977 1977-03-16 3.42 3706
1978 1978-01-16 19.80 27,7006
1979 1979-01-11 14.92 15,1006
1980 1980-01-13 20.13 28,8006
1981 1981-01-27 13.65 12,4006
1982 1981-12-20 18.80 24,8006
1983 1983-01-26 13.65 33,2006
1984 1983-12-09 15.86 17,2006
1985 1985-02-08 14.06 13,3006
1986 1986-02-17 23.63 40,7006
1987 1987-03-12 11.64 9,4506
1988 1988-01-04 15.80 18,5006
1989 1989-03-18 14.42 13,7006
1990 1990-01-07 10.78 7,8806
1991 1991-03-04 13.75 13,7006
1992 1992-02-15 13.48 13,1006
1993 1993-01-21 19.60 26,9006
1994 1994-02-18 10.59 6,8006
1995 1995-01-09 23.34 39,4006
1996 1996-01-25 15.75 18,3006
1997 1997-01-01 19.64 29,0006
1998 1998-02-03 19.64 23,3006
1999 1999-02-09 15.03 15,9006
2000 2000-02-14 14.30 14,3006
2001 2001-03-04 14.75 15,3006
2002 2002-01-02 14.46 14,7006
2003 2002-12-16 18.33 24,0006
2004 2004-02-17 19.62 27,7006
2005 2004-12-08 12.21 10,3006
2006 2005-12-31 26.20 50,7006
2007 2007-02-10 12.98 11,7006
2008 2008-01-04 16.29 18,8006
2009 2009-02-23 11.55 9,1806
2010 2010-01-20 15.55 17,0006
2011 2011-03-25 14.56 14,9006
2012 2012-03-27 14.26 14,2006
2013 2012-12-02 16.93 20,3006
2014 2014-03-29 10.545 7,2902,6
2015 2014-12-11 17.22 18,1006
2016 2016-01-18 13.88 12,7006
2017 2017-01-11 18.52 23,6006
2018 2018-04-07 11.95 8,9306
2019 2019-02-27 21.74 33,4006
2020 2020-01-16 7.85 3,3906
?
  Peak Gage-Height Qualification Codes.
?
  Peak Streamflow Qualification Codes.